sensor_id;sensor_type;location;lat;lon;timestamp;P1;durP1;ratioP1;P2;durP2;ratioP2
17826;SDS011;9038;48.208;16.308;2023-01-08T00:01:55;84.37;;;35.53;;
17826;SDS011;9038;48.208;16.308;2023-01-08T00:03:57;57.70;;;34.30;;
17826;SDS011;9038;48.208;16.308;2023-01-08T00:06:00;110.47;;;37.60;;
17826;SDS011;9038;48.208;16.308;2023-01-08T00:08:04;92.70;;;37.97;;
17826;SDS011;9038;48.208;16.308;2023-01-08T00:10:07;64.77;;;34.70;;
17826;SDS011;9038;48.208;16.308;2023-01-08T00:12:09;62.40;;;34.20;;
17826;SDS011;9038;48.208;16.308;2023-01-08T00:14:11;83.97;;;33.67;;
17826;SDS011;9038;48.208;16.308;2023-01-08T00:16:14;69.57;;;32.83;;
17826;SDS011;9038;48.208;16.308;2023-01-08T00:18:17;79.70;;;34.07;;
17826;SDS011;9038;48.208;16.308;2023-01-08T00:20:19;53.30;;;31.47;;
17826;SDS011;9038;48.208;16.308;2023-01-08T00:22:21;150.40;;;33.23;;
17826;SDS011;9038;48.208;16.308;2023-01-08T00:24:25;120.63;;;33.73;;
17826;SDS011;9038;48.208;16.308;2023-01-08T00:26:27;101.73;;;33.43;;
17826;SDS011;9038;48.208;16.308;2023-01-08T00:28:29;269.93;;;42.83;;
17826;SDS011;9038;48.208;16.308;2023-01-08T00:30:31;179.23;;;38.07;;
17826;SDS011;9038;48.208;16.308;2023-01-08T00:32:33;93.87;;;33.40;;
17826;SDS011;9038;48.208;16.308;2023-01-08T00:34:35;139.17;;;35.13;;
17826;SDS011;9038;48.208;16.308;2023-01-08T00:36:37;193.73;;;38.40;;
17826;SDS011;9038;48.208;16.308;2023-01-08T00:38:39;160.37;;;38.00;;
17826;SDS011;9038;48.208;16.308;2023-01-08T00:40:43;80.00;;;32.77;;
17826;SDS011;9038;48.208;16.308;2023-01-08T00:42:45;88.50;;;33.47;;
17826;SDS011;9038;48.208;16.308;2023-01-08T00:44:47;97.80;;;35.20;;
17826;SDS011;9038;48.208;16.308;2023-01-08T00:46:49;70.47;;;33.10;;
17826;SDS011;9038;48.208;16.308;2023-01-08T00:48:51;115.57;;;35.67;;
17826;SDS011;9038;48.208;16.308;2023-01-08T00:50:53;92.40;;;34.57;;
17826;SDS011;9038;48.208;16.308;2023-01-08T00:52:55;53.50;;;31.67;;
17826;SDS011;9038;48.208;16.308;2023-01-08T00:54:57;55.30;;;31.97;;
17826;SDS011;9038;48.208;16.308;2023-01-08T00:57:00;54.07;;;30.80;;
17826;SDS011;9038;48.208;16.308;2023-01-08T00:59:02;100.13;;;33.90;;
17826;SDS011;9038;48.208;16.308;2023-01-08T01:01:08;86.97;;;33.67;;
17826;SDS011;9038;48.208;16.308;2023-01-08T01:03:10;58.67;;;33.07;;
17826;SDS011;9038;48.208;16.308;2023-01-08T01:05:12;59.13;;;31.70;;
17826;SDS011;9038;48.208;16.308;2023-01-08T01:07:16;66.53;;;33.10;;
17826;SDS011;9038;48.208;16.308;2023-01-08T01:09:17;60.60;;;33.17;;
17826;SDS011;9038;48.208;16.308;2023-01-08T01:11:20;58.90;;;33.73;;
17826;SDS011;9038;48.208;16.308;2023-01-08T01:13:25;69.13;;;33.83;;
17826;SDS011;9038;48.208;16.308;2023-01-08T01:15:27;52.83;;;31.83;;
17826;SDS011;9038;48.208;16.308;2023-01-08T01:17:29;88.00;;;35.43;;
17826;SDS011;9038;48.208;16.308;2023-01-08T01:19:31;64.77;;;35.33;;
17826;SDS011;9038;48.208;16.308;2023-01-08T01:21:33;75.67;;;36.33;;
17826;SDS011;9038;48.208;16.308;2023-01-08T01:23:35;64.40;;;36.73;;
17826;SDS011;9038;48.208;16.308;2023-01-08T01:25:37;59.37;;;34.27;;
17826;SDS011;9038;48.208;16.308;2023-01-08T01:27:39;63.23;;;35.80;;
17826;SDS011;9038;48.208;16.308;2023-01-08T01:29:42;60.77;;;35.57;;
17826;SDS011;9038;48.208;16.308;2023-01-08T01:31:44;57.20;;;34.57;;
17826;SDS011;9038;48.208;16.308;2023-01-08T01:33:46;72.73;;;36.33;;
17826;SDS011;9038;48.208;16.308;2023-01-08T01:35:48;69.93;;;35.90;;
17826;SDS011;9038;48.208;16.308;2023-01-08T01:37:58;93.13;;;37.90;;
17826;SDS011;9038;48.208;16.308;2023-01-08T01:40:00;68.20;;;36.60;;
17826;SDS011;9038;48.208;16.308;2023-01-08T01:42:02;84.93;;;37.43;;
17826;SDS011;9038;48.208;16.308;2023-01-08T01:46:40;64.37;;;34.87;;
17826;SDS011;9038;48.208;16.308;2023-01-08T01:48:42;65.20;;;35.33;;
17826;SDS011;9038;48.208;16.308;2023-01-08T01:50:45;66.70;;;36.57;;
17826;SDS011;9038;48.208;16.308;2023-01-08T01:52:54;67.37;;;36.20;;
17826;SDS011;9038;48.208;16.308;2023-01-08T01:55:00;65.30;;;35.70;;
17826;SDS011;9038;48.208;16.308;2023-01-08T01:57:03;65.23;;;35.10;;
17826;SDS011;9038;48.208;16.308;2023-01-08T01:59:06;83.47;;;37.47;;
17826;SDS011;9038;48.208;16.308;2023-01-08T02:01:09;58.90;;;33.43;;
17826;SDS011;9038;48.208;16.308;2023-01-08T02:03:13;76.60;;;34.73;;
17826;SDS011;9038;48.208;16.308;2023-01-08T02:05:16;68.00;;;34.67;;
17826;SDS011;9038;48.208;16.308;2023-01-08T02:07:19;59.13;;;34.10;;
17826;SDS011;9038;48.208;16.308;2023-01-08T02:09:30;86.87;;;35.97;;
17826;SDS011;9038;48.208;16.308;2023-01-08T02:11:44;76.73;;;35.10;;
17826;SDS011;9038;48.208;16.308;2023-01-08T02:14:11;93.40;;;37.60;;
17826;SDS011;9038;48.208;16.308;2023-01-08T02:16:18;85.33;;;36.10;;
17826;SDS011;9038;48.208;16.308;2023-01-08T02:18:29;65.20;;;35.83;;
17826;SDS011;9038;48.208;16.308;2023-01-08T02:20:38;87.67;;;35.30;;
17826;SDS011;9038;48.208;16.308;2023-01-08T02:22:51;68.50;;;35.83;;
17826;SDS011;9038;48.208;16.308;2023-01-08T02:25:05;67.20;;;36.03;;
17826;SDS011;9038;48.208;16.308;2023-01-08T02:27:13;66.33;;;35.67;;
17826;SDS011;9038;48.208;16.308;2023-01-08T02:29:17;59.40;;;33.67;;
17826;SDS011;9038;48.208;16.308;2023-01-08T02:31:24;66.93;;;35.70;;
17826;SDS011;9038;48.208;16.308;2023-01-08T02:33:28;79.07;;;37.90;;
17826;SDS011;9038;48.208;16.308;2023-01-08T02:35:33;83.23;;;37.80;;
17826;SDS011;9038;48.208;16.308;2023-01-08T02:37:38;69.47;;;35.77;;
17826;SDS011;9038;48.208;16.308;2023-01-08T02:39:48;78.40;;;38.93;;
17826;SDS011;9038;48.208;16.308;2023-01-08T02:42:08;84.97;;;36.70;;
17826;SDS011;9038;48.208;16.308;2023-01-08T02:44:15;63.87;;;35.30;;
17826;SDS011;9038;48.208;16.308;2023-01-08T02:46:25;86.73;;;35.80;;
17826;SDS011;9038;48.208;16.308;2023-01-08T02:48:33;96.43;;;37.57;;
17826;SDS011;9038;48.208;16.308;2023-01-08T02:50:39;71.67;;;34.60;;
17826;SDS011;9038;48.208;16.308;2023-01-08T02:52:47;82.37;;;36.80;;
17826;SDS011;9038;48.208;16.308;2023-01-08T02:54:56;95.67;;;34.83;;
17826;SDS011;9038;48.208;16.308;2023-01-08T02:57:03;79.40;;;35.03;;
17826;SDS011;9038;48.208;16.308;2023-01-08T02:59:08;68.20;;;34.83;;
17826;SDS011;9038;48.208;16.308;2023-01-08T03:01:15;102.23;;;35.43;;
17826;SDS011;9038;48.208;16.308;2023-01-08T03:03:19;118.83;;;37.77;;
17826;SDS011;9038;48.208;16.308;2023-01-08T03:05:24;77.23;;;35.87;;
17826;SDS011;9038;48.208;16.308;2023-01-08T03:07:30;106.73;;;36.93;;
17826;SDS011;9038;48.208;16.308;2023-01-08T03:09:33;74.60;;;36.07;;
17826;SDS011;9038;48.208;16.308;2023-01-08T03:11:36;127.33;;;38.70;;
17826;SDS011;9038;48.208;16.308;2023-01-08T03:13:44;87.47;;;37.27;;
17826;SDS011;9038;48.208;16.308;2023-01-08T03:15:51;75.30;;;35.20;;
17826;SDS011;9038;48.208;16.308;2023-01-08T03:17:59;77.73;;;36.27;;
17826;SDS011;9038;48.208;16.308;2023-01-08T03:20:05;87.13;;;34.87;;
17826;SDS011;9038;48.208;16.308;2023-01-08T03:22:11;119.37;;;39.57;;
17826;SDS011;9038;48.208;16.308;2023-01-08T03:24:16;64.33;;;33.27;;
17826;SDS011;9038;48.208;16.308;2023-01-08T03:26:23;69.47;;;35.63;;
17826;SDS011;9038;48.208;16.308;2023-01-08T03:28:28;66.20;;;34.37;;
17826;SDS011;9038;48.208;16.308;2023-01-08T03:30:33;59.70;;;33.50;;
17826;SDS011;9038;48.208;16.308;2023-01-08T03:32:40;70.67;;;34.77;;
17826;SDS011;9038;48.208;16.308;2023-01-08T03:34:45;79.60;;;34.40;;
17826;SDS011;9038;48.208;16.308;2023-01-08T03:36:49;78.43;;;35.07;;
17826;SDS011;9038;48.208;16.308;2023-01-08T03:38:55;96.03;;;36.07;;
17826;SDS011;9038;48.208;16.308;2023-01-08T03:41:00;63.23;;;33.30;;
17826;SDS011;9038;48.208;16.308;2023-01-08T03:43:05;68.27;;;34.73;;
17826;SDS011;9038;48.208;16.308;2023-01-08T03:45:07;86.40;;;35.23;;
17826;SDS011;9038;48.208;16.308;2023-01-08T03:47:09;91.10;;;34.77;;
17826;SDS011;9038;48.208;16.308;2023-01-08T03:49:12;73.77;;;35.43;;
17826;SDS011;9038;48.208;16.308;2023-01-08T03:51:16;88.70;;;34.83;;
17826;SDS011;9038;48.208;16.308;2023-01-08T03:53:19;78.77;;;35.17;;
17826;SDS011;9038;48.208;16.308;2023-01-08T03:55:20;89.47;;;36.07;;
17826;SDS011;9038;48.208;16.308;2023-01-08T03:57:22;67.80;;;33.33;;
17826;SDS011;9038;48.208;16.308;2023-01-08T03:59:24;142.63;;;36.57;;
17826;SDS011;9038;48.208;16.308;2023-01-08T04:01:26;65.07;;;33.23;;
17826;SDS011;9038;48.208;16.308;2023-01-08T04:03:28;104.80;;;36.47;;
17826;SDS011;9038;48.208;16.308;2023-01-08T04:05:30;119.63;;;37.83;;
17826;SDS011;9038;48.208;16.308;2023-01-08T04:07:34;196.37;;;41.27;;
17826;SDS011;9038;48.208;16.308;2023-01-08T04:09:36;73.93;;;36.00;;
17826;SDS011;9038;48.208;16.308;2023-01-08T04:11:38;72.83;;;34.37;;
17826;SDS011;9038;48.208;16.308;2023-01-08T04:13:40;79.93;;;33.10;;
17826;SDS011;9038;48.208;16.308;2023-01-08T04:15:45;81.03;;;34.43;;
17826;SDS011;9038;48.208;16.308;2023-01-08T04:17:48;60.87;;;32.13;;
17826;SDS011;9038;48.208;16.308;2023-01-08T04:19:50;67.50;;;31.93;;
17826;SDS011;9038;48.208;16.308;2023-01-08T04:21:52;77.63;;;34.20;;
17826;SDS011;9038;48.208;16.308;2023-01-08T04:23:55;115.60;;;34.70;;
17826;SDS011;9038;48.208;16.308;2023-01-08T04:25:57;100.40;;;33.23;;
17826;SDS011;9038;48.208;16.308;2023-01-08T04:27:59;96.63;;;33.47;;
17826;SDS011;9038;48.208;16.308;2023-01-08T04:30:01;128.23;;;32.13;;
17826;SDS011;9038;48.208;16.308;2023-01-08T04:32:03;97.33;;;34.47;;
17826;SDS011;9038;48.208;16.308;2023-01-08T04:34:05;81.17;;;32.00;;
17826;SDS011;9038;48.208;16.308;2023-01-08T04:36:08;169.57;;;37.23;;
17826;SDS011;9038;48.208;16.308;2023-01-08T04:38:10;71.40;;;31.90;;
17826;SDS011;9038;48.208;16.308;2023-01-08T04:40:13;105.93;;;33.27;;
17826;SDS011;9038;48.208;16.308;2023-01-08T04:42:15;83.73;;;32.13;;
17826;SDS011;9038;48.208;16.308;2023-01-08T04:44:17;65.73;;;32.10;;
17826;SDS011;9038;48.208;16.308;2023-01-08T04:46:19;68.97;;;31.67;;
17826;SDS011;9038;48.208;16.308;2023-01-08T04:48:21;81.30;;;29.77;;
17826;SDS011;9038;48.208;16.308;2023-01-08T04:50:23;78.17;;;30.80;;
17826;SDS011;9038;48.208;16.308;2023-01-08T04:52:26;92.00;;;32.63;;
17826;SDS011;9038;48.208;16.308;2023-01-08T04:54:28;91.40;;;30.23;;
17826;SDS011;9038;48.208;16.308;2023-01-08T04:56:32;104.13;;;30.83;;
17826;SDS011;9038;48.208;16.308;2023-01-08T04:58:34;90.57;;;31.27;;
17826;SDS011;9038;48.208;16.308;2023-01-08T05:00:37;79.20;;;29.83;;
17826;SDS011;9038;48.208;16.308;2023-01-08T05:02:39;108.20;;;31.90;;
17826;SDS011;9038;48.208;16.308;2023-01-08T05:04:41;63.83;;;29.83;;
17826;SDS011;9038;48.208;16.308;2023-01-08T05:06:43;94.13;;;31.67;;
17826;SDS011;9038;48.208;16.308;2023-01-08T05:08:45;76.20;;;29.40;;
17826;SDS011;9038;48.208;16.308;2023-01-08T05:10:47;66.90;;;29.53;;
17826;SDS011;9038;48.208;16.308;2023-01-08T05:12:50;79.67;;;30.30;;
17826;SDS011;9038;48.208;16.308;2023-01-08T05:14:52;67.60;;;29.60;;
17826;SDS011;9038;48.208;16.308;2023-01-08T05:16:54;61.53;;;29.30;;
17826;SDS011;9038;48.208;16.308;2023-01-08T05:18:56;60.23;;;29.40;;
17826;SDS011;9038;48.208;16.308;2023-01-08T05:20:59;77.37;;;28.13;;
17826;SDS011;9038;48.208;16.308;2023-01-08T05:23:01;66.20;;;28.50;;
17826;SDS011;9038;48.208;16.308;2023-01-08T05:25:03;59.43;;;27.93;;
17826;SDS011;9038;48.208;16.308;2023-01-08T05:27:06;72.97;;;28.87;;
17826;SDS011;9038;48.208;16.308;2023-01-08T05:29:09;66.27;;;28.13;;
17826;SDS011;9038;48.208;16.308;2023-01-08T05:31:11;62.23;;;29.50;;
17826;SDS011;9038;48.208;16.308;2023-01-08T05:33:13;54.37;;;26.50;;
17826;SDS011;9038;48.208;16.308;2023-01-08T05:35:15;57.23;;;28.30;;
17826;SDS011;9038;48.208;16.308;2023-01-08T05:37:17;58.90;;;27.87;;
17826;SDS011;9038;48.208;16.308;2023-01-08T05:39:19;59.27;;;27.93;;
17826;SDS011;9038;48.208;16.308;2023-01-08T05:41:21;66.33;;;28.70;;
17826;SDS011;9038;48.208;16.308;2023-01-08T05:43:23;55.10;;;27.43;;
17826;SDS011;9038;48.208;16.308;2023-01-08T05:45:27;79.50;;;29.70;;
17826;SDS011;9038;48.208;16.308;2023-01-08T05:47:29;75.50;;;29.77;;
17826;SDS011;9038;48.208;16.308;2023-01-08T05:49:31;87.73;;;29.00;;
17826;SDS011;9038;48.208;16.308;2023-01-08T05:51:33;97.97;;;32.30;;
17826;SDS011;9038;48.208;16.308;2023-01-08T05:53:35;81.50;;;30.93;;
17826;SDS011;9038;48.208;16.308;2023-01-08T05:55:37;71.07;;;28.30;;
17826;SDS011;9038;48.208;16.308;2023-01-08T05:57:39;113.80;;;30.93;;
17826;SDS011;9038;48.208;16.308;2023-01-08T05:59:41;84.30;;;29.77;;
17826;SDS011;9038;48.208;16.308;2023-01-08T06:01:44;78.10;;;30.23;;
17826;SDS011;9038;48.208;16.308;2023-01-08T06:03:46;117.50;;;32.90;;
17826;SDS011;9038;48.208;16.308;2023-01-08T06:05:48;101.63;;;31.27;;
17826;SDS011;9038;48.208;16.308;2023-01-08T06:07:50;90.23;;;32.00;;
17826;SDS011;9038;48.208;16.308;2023-01-08T06:09:52;88.03;;;31.07;;
17826;SDS011;9038;48.208;16.308;2023-01-08T06:11:54;98.80;;;32.30;;
17826;SDS011;9038;48.208;16.308;2023-01-08T06:13:57;132.03;;;32.63;;
17826;SDS011;9038;48.208;16.308;2023-01-08T06:15:59;111.37;;;32.47;;
17826;SDS011;9038;48.208;16.308;2023-01-08T06:18:03;98.97;;;32.27;;
17826;SDS011;9038;48.208;16.308;2023-01-08T06:20:06;129.27;;;33.13;;
17826;SDS011;9038;48.208;16.308;2023-01-08T06:22:08;100.03;;;33.27;;
17826;SDS011;9038;48.208;16.308;2023-01-08T06:24:10;99.87;;;33.43;;
17826;SDS011;9038;48.208;16.308;2023-01-08T06:26:12;78.30;;;30.73;;
17826;SDS011;9038;48.208;16.308;2023-01-08T06:28:14;82.43;;;30.67;;
17826;SDS011;9038;48.208;16.308;2023-01-08T06:30:16;98.60;;;30.43;;
17826;SDS011;9038;48.208;16.308;2023-01-08T06:32:18;97.83;;;28.63;;
17826;SDS011;9038;48.208;16.308;2023-01-08T06:34:21;100.83;;;30.43;;
17826;SDS011;9038;48.208;16.308;2023-01-08T06:36:23;67.70;;;28.23;;
17826;SDS011;9038;48.208;16.308;2023-01-08T06:38:25;74.83;;;29.23;;
17826;SDS011;9038;48.208;16.308;2023-01-08T06:40:27;109.93;;;31.17;;
17826;SDS011;9038;48.208;16.308;2023-01-08T06:42:29;117.07;;;32.43;;
17826;SDS011;9038;48.208;16.308;2023-01-08T06:44:31;86.17;;;30.17;;
17826;SDS011;9038;48.208;16.308;2023-01-08T06:46:33;94.07;;;29.67;;
17826;SDS011;9038;48.208;16.308;2023-01-08T06:48:39;77.90;;;29.60;;
17826;SDS011;9038;48.208;16.308;2023-01-08T06:50:42;62.87;;;29.90;;
17826;SDS011;9038;48.208;16.308;2023-01-08T06:52:50;84.07;;;30.37;;
17826;SDS011;9038;48.208;16.308;2023-01-08T06:54:53;74.60;;;28.87;;
17826;SDS011;9038;48.208;16.308;2023-01-08T06:56:55;70.87;;;29.53;;
17826;SDS011;9038;48.208;16.308;2023-01-08T06:58:57;80.70;;;30.40;;
17826;SDS011;9038;48.208;16.308;2023-01-08T07:00:59;70.27;;;30.70;;
17826;SDS011;9038;48.208;16.308;2023-01-08T07:03:01;93.73;;;31.27;;
17826;SDS011;9038;48.208;16.308;2023-01-08T07:05:03;115.57;;;31.83;;
17826;SDS011;9038;48.208;16.308;2023-01-08T07:07:07;109.43;;;33.17;;
17826;SDS011;9038;48.208;16.308;2023-01-08T07:09:14;127.87;;;32.27;;
17826;SDS011;9038;48.208;16.308;2023-01-08T07:11:16;106.80;;;33.03;;
17826;SDS011;9038;48.208;16.308;2023-01-08T07:13:18;104.30;;;32.43;;
17826;SDS011;9038;48.208;16.308;2023-01-08T07:15:21;82.90;;;31.60;;
17826;SDS011;9038;48.208;16.308;2023-01-08T07:17:23;94.97;;;31.17;;
17826;SDS011;9038;48.208;16.308;2023-01-08T07:19:25;104.50;;;31.63;;
17826;SDS011;9038;48.208;16.308;2023-01-08T07:21:27;68.53;;;30.63;;
17826;SDS011;9038;48.208;16.308;2023-01-08T07:23:31;81.93;;;31.37;;
17826;SDS011;9038;48.208;16.308;2023-01-08T07:25:33;108.87;;;31.00;;
17826;SDS011;9038;48.208;16.308;2023-01-08T07:27:35;59.10;;;28.67;;
17826;SDS011;9038;48.208;16.308;2023-01-08T07:29:37;64.87;;;29.40;;
17826;SDS011;9038;48.208;16.308;2023-01-08T07:31:39;84.50;;;30.67;;
17826;SDS011;9038;48.208;16.308;2023-01-08T07:33:41;87.37;;;30.90;;
17826;SDS011;9038;48.208;16.308;2023-01-08T07:35:43;82.17;;;31.73;;
17826;SDS011;9038;48.208;16.308;2023-01-08T07:37:51;99.13;;;31.83;;
17826;SDS011;9038;48.208;16.308;2023-01-08T07:39:54;79.20;;;29.60;;
17826;SDS011;9038;48.208;16.308;2023-01-08T07:41:56;75.83;;;30.10;;
17826;SDS011;9038;48.208;16.308;2023-01-08T07:43:58;79.13;;;30.83;;
17826;SDS011;9038;48.208;16.308;2023-01-08T07:46:01;69.40;;;30.10;;
17826;SDS011;9038;48.208;16.308;2023-01-08T07:48:03;75.23;;;30.00;;
17826;SDS011;9038;48.208;16.308;2023-01-08T07:50:06;81.57;;;28.90;;
17826;SDS011;9038;48.208;16.308;2023-01-08T07:52:08;58.73;;;28.70;;
17826;SDS011;9038;48.208;16.308;2023-01-08T07:54:10;60.63;;;27.83;;
17826;SDS011;9038;48.208;16.308;2023-01-08T07:56:14;56.23;;;27.30;;
17826;SDS011;9038;48.208;16.308;2023-01-08T07:58:15;54.27;;;27.43;;
17826;SDS011;9038;48.208;16.308;2023-01-08T08:00:18;65.77;;;27.97;;
17826;SDS011;9038;48.208;16.308;2023-01-08T08:02:20;55.63;;;27.50;;
17826;SDS011;9038;48.208;16.308;2023-01-08T08:04:21;66.67;;;28.20;;
17826;SDS011;9038;48.208;16.308;2023-01-08T08:06:24;53.83;;;27.23;;
17826;SDS011;9038;48.208;16.308;2023-01-08T08:08:26;84.70;;;29.80;;
17826;SDS011;9038;48.208;16.308;2023-01-08T08:10:28;80.57;;;31.80;;
17826;SDS011;9038;48.208;16.308;2023-01-08T08:12:31;59.83;;;29.30;;
17826;SDS011;9038;48.208;16.308;2023-01-08T08:14:33;64.77;;;28.40;;
17826;SDS011;9038;48.208;16.308;2023-01-08T08:16:35;78.43;;;34.58;;
17826;SDS011;9038;48.208;16.308;2023-01-08T08:18:37;101.43;;;31.17;;
17826;SDS011;9038;48.208;16.308;2023-01-08T08:20:39;81.13;;;30.33;;
17826;SDS011;9038;48.208;16.308;2023-01-08T08:22:41;66.40;;;28.70;;
17826;SDS011;9038;48.208;16.308;2023-01-08T08:24:43;107.10;;;29.13;;
17826;SDS011;9038;48.208;16.308;2023-01-08T08:26:45;119.13;;;30.77;;
17826;SDS011;9038;48.208;16.308;2023-01-08T08:28:49;85.10;;;28.53;;
17826;SDS011;9038;48.208;16.308;2023-01-08T08:30:50;115.47;;;30.03;;
17826;SDS011;9038;48.208;16.308;2023-01-08T08:32:52;117.93;;;29.70;;
17826;SDS011;9038;48.208;16.308;2023-01-08T08:34:55;72.77;;;30.10;;
17826;SDS011;9038;48.208;16.308;2023-01-08T08:36:57;67.07;;;28.90;;
17826;SDS011;9038;48.208;16.308;2023-01-08T08:39:00;154.67;;;30.00;;
17826;SDS011;9038;48.208;16.308;2023-01-08T08:41:03;113.03;;;28.37;;
17826;SDS011;9038;48.208;16.308;2023-01-08T08:43:06;150.00;;;30.73;;
17826;SDS011;9038;48.208;16.308;2023-01-08T08:45:10;163.07;;;33.13;;
17826;SDS011;9038;48.208;16.308;2023-01-08T08:47:13;138.33;;;30.67;;
17826;SDS011;9038;48.208;16.308;2023-01-08T08:49:15;98.63;;;29.07;;
17826;SDS011;9038;48.208;16.308;2023-01-08T08:51:16;98.33;;;29.03;;
17826;SDS011;9038;48.208;16.308;2023-01-08T08:53:18;85.60;;;28.40;;
17826;SDS011;9038;48.208;16.308;2023-01-08T08:55:20;94.00;;;27.93;;
17826;SDS011;9038;48.208;16.308;2023-01-08T08:57:22;86.90;;;28.27;;
17826;SDS011;9038;48.208;16.308;2023-01-08T08:59:24;71.90;;;27.23;;
17826;SDS011;9038;48.208;16.308;2023-01-08T09:01:28;113.10;;;29.03;;
17826;SDS011;9038;48.208;16.308;2023-01-08T09:03:30;109.90;;;28.53;;
17826;SDS011;9038;48.208;16.308;2023-01-08T09:05:34;105.97;;;28.50;;
17826;SDS011;9038;48.208;16.308;2023-01-08T09:07:36;96.97;;;26.67;;
17826;SDS011;9038;48.208;16.308;2023-01-08T09:09:38;58.53;;;25.07;;
17826;SDS011;9038;48.208;16.308;2023-01-08T09:11:40;121.43;;;28.47;;
17826;SDS011;9038;48.208;16.308;2023-01-08T09:13:42;109.10;;;26.63;;
17826;SDS011;9038;48.208;16.308;2023-01-08T09:15:44;109.13;;;26.10;;
17826;SDS011;9038;48.208;16.308;2023-01-08T09:17:52;113.90;;;28.07;;
17826;SDS011;9038;48.208;16.308;2023-01-08T09:19:55;75.87;;;26.43;;
17826;SDS011;9038;48.208;16.308;2023-01-08T09:21:57;95.47;;;27.63;;
17826;SDS011;9038;48.208;16.308;2023-01-08T09:23:59;82.53;;;26.00;;
17826;SDS011;9038;48.208;16.308;2023-01-08T09:26:01;82.77;;;25.53;;
17826;SDS011;9038;48.208;16.308;2023-01-08T09:28:04;86.60;;;25.60;;
17826;SDS011;9038;48.208;16.308;2023-01-08T09:30:08;83.13;;;26.13;;
17826;SDS011;9038;48.208;16.308;2023-01-08T09:32:10;87.80;;;25.77;;
17826;SDS011;9038;48.208;16.308;2023-01-08T09:34:14;100.13;;;24.77;;
17826;SDS011;9038;48.208;16.308;2023-01-08T09:36:16;182.33;;;28.17;;
17826;SDS011;9038;48.208;16.308;2023-01-08T09:38:18;116.17;;;25.73;;
17826;SDS011;9038;48.208;16.308;2023-01-08T09:40:21;83.93;;;26.37;;
17826;SDS011;9038;48.208;16.308;2023-01-08T09:42:27;81.07;;;26.10;;
17826;SDS011;9038;48.208;16.308;2023-01-08T09:44:31;139.83;;;28.10;;
17826;SDS011;9038;48.208;16.308;2023-01-08T09:46:37;87.83;;;25.97;;
17826;SDS011;9038;48.208;16.308;2023-01-08T09:48:39;103.87;;;26.70;;
17826;SDS011;9038;48.208;16.308;2023-01-08T09:50:43;81.87;;;26.87;;
17826;SDS011;9038;48.208;16.308;2023-01-08T09:52:47;97.20;;;25.70;;
17826;SDS011;9038;48.208;16.308;2023-01-08T09:54:48;81.40;;;25.80;;
17826;SDS011;9038;48.208;16.308;2023-01-08T09:56:52;64.53;;;24.10;;
17826;SDS011;9038;48.208;16.308;2023-01-08T09:58:55;84.67;;;26.60;;
17826;SDS011;9038;48.208;16.308;2023-01-08T10:00:59;95.43;;;27.00;;
17826;SDS011;9038;48.208;16.308;2023-01-08T10:03:02;120.10;;;26.10;;
17826;SDS011;9038;48.208;16.308;2023-01-08T10:05:09;78.73;;;25.50;;
17826;SDS011;9038;48.208;16.308;2023-01-08T10:07:14;77.30;;;27.10;;
17826;SDS011;9038;48.208;16.308;2023-01-08T10:09:22;70.13;;;25.53;;
17826;SDS011;9038;48.208;16.308;2023-01-08T10:11:27;59.07;;;25.50;;
17826;SDS011;9038;48.208;16.308;2023-01-08T10:13:36;55.57;;;25.60;;
17826;SDS011;9038;48.208;16.308;2023-01-08T10:15:39;56.10;;;25.47;;
17826;SDS011;9038;48.208;16.308;2023-01-08T10:17:44;50.10;;;23.40;;
17826;SDS011;9038;48.208;16.308;2023-01-08T10:19:49;43.60;;;20.70;;
17826;SDS011;9038;48.208;16.308;2023-01-08T10:21:51;44.00;;;20.67;;
17826;SDS011;9038;48.208;16.308;2023-01-08T10:23:55;43.17;;;20.57;;
17826;SDS011;9038;48.208;16.308;2023-01-08T10:25:58;43.17;;;21.00;;
17826;SDS011;9038;48.208;16.308;2023-01-08T10:28:01;43.53;;;20.70;;
17826;SDS011;9038;48.208;16.308;2023-01-08T10:30:04;46.77;;;21.13;;
17826;SDS011;9038;48.208;16.308;2023-01-08T10:32:08;43.30;;;20.53;;
17826;SDS011;9038;48.208;16.308;2023-01-08T10:34:23;51.97;;;22.77;;
17826;SDS011;9038;48.208;16.308;2023-01-08T10:36:27;45.67;;;21.13;;
17826;SDS011;9038;48.208;16.308;2023-01-08T10:38:29;42.80;;;20.97;;
17826;SDS011;9038;48.208;16.308;2023-01-08T10:40:36;40.20;;;21.00;;
17826;SDS011;9038;48.208;16.308;2023-01-08T10:42:41;43.57;;;20.30;;
17826;SDS011;9038;48.208;16.308;2023-01-08T10:44:45;46.57;;;23.00;;
17826;SDS011;9038;48.208;16.308;2023-01-08T10:46:58;42.23;;;20.47;;
17826;SDS011;9038;48.208;16.308;2023-01-08T10:49:03;40.03;;;20.67;;
17826;SDS011;9038;48.208;16.308;2023-01-08T10:51:12;39.80;;;20.63;;
17826;SDS011;9038;48.208;16.308;2023-01-08T10:53:20;44.80;;;20.93;;
17826;SDS011;9038;48.208;16.308;2023-01-08T10:55:25;44.83;;;20.63;;
17826;SDS011;9038;48.208;16.308;2023-01-08T10:57:30;39.30;;;21.40;;
17826;SDS011;9038;48.208;16.308;2023-01-08T10:59:34;43.70;;;21.47;;
17826;SDS011;9038;48.208;16.308;2023-01-08T11:01:36;246.47;;;35.03;;
17826;SDS011;9038;48.208;16.308;2023-01-08T11:03:39;230.97;;;36.67;;
17826;SDS011;9038;48.208;16.308;2023-01-08T11:05:41;59.87;;;23.07;;
17826;SDS011;9038;48.208;16.308;2023-01-08T11:07:46;59.50;;;23.70;;
17826;SDS011;9038;48.208;16.308;2023-01-08T11:09:50;46.73;;;21.30;;
17826;SDS011;9038;48.208;16.308;2023-01-08T11:11:53;41.17;;;21.83;;
17826;SDS011;9038;48.208;16.308;2023-01-08T11:13:57;42.60;;;20.30;;
17826;SDS011;9038;48.208;16.308;2023-01-08T11:16:02;38.47;;;19.93;;
17826;SDS011;9038;48.208;16.308;2023-01-08T11:18:12;37.27;;;19.60;;
17826;SDS011;9038;48.208;16.308;2023-01-08T11:20:19;34.03;;;19.93;;
17826;SDS011;9038;48.208;16.308;2023-01-08T11:22:22;36.00;;;19.10;;
17826;SDS011;9038;48.208;16.308;2023-01-08T11:24:26;37.30;;;19.87;;
17826;SDS011;9038;48.208;16.308;2023-01-08T11:26:31;35.07;;;20.10;;
17826;SDS011;9038;48.208;16.308;2023-01-08T11:28:42;34.33;;;19.00;;
17826;SDS011;9038;48.208;16.308;2023-01-08T11:30:52;37.10;;;19.70;;
17826;SDS011;9038;48.208;16.308;2023-01-08T11:33:00;35.80;;;20.17;;
17826;SDS011;9038;48.208;16.308;2023-01-08T11:35:07;34.70;;;18.93;;
17826;SDS011;9038;48.208;16.308;2023-01-08T11:37:16;40.23;;;20.60;;
17826;SDS011;9038;48.208;16.308;2023-01-08T11:39:20;29.90;;;17.70;;
17826;SDS011;9038;48.208;16.308;2023-01-08T11:41:27;31.37;;;18.07;;
17826;SDS011;9038;48.208;16.308;2023-01-08T11:43:40;30.40;;;17.30;;
17826;SDS011;9038;48.208;16.308;2023-01-08T11:46:01;28.20;;;16.50;;
17826;SDS011;9038;48.208;16.308;2023-01-08T11:48:23;29.87;;;18.00;;
17826;SDS011;9038;48.208;16.308;2023-01-08T11:50:37;29.57;;;17.40;;
17826;SDS011;9038;48.208;16.308;2023-01-08T11:52:52;30.97;;;17.60;;
17826;SDS011;9038;48.208;16.308;2023-01-08T11:55:12;34.67;;;18.07;;
17826;SDS011;9038;48.208;16.308;2023-01-08T11:57:25;34.27;;;19.37;;
17826;SDS011;9038;48.208;16.308;2023-01-08T11:59:43;32.77;;;16.50;;
17826;SDS011;9038;48.208;16.308;2023-01-08T12:01:57;31.13;;;17.90;;
17826;SDS011;9038;48.208;16.308;2023-01-08T12:04:20;26.73;;;17.27;;
17826;SDS011;9038;48.208;16.308;2023-01-08T12:06:34;28.67;;;15.77;;